Time;durP1;ratioP1;P1;durP2;ratioP2;P2;SDS_P1;SDS_P2;PMS_P1;PMS_P2;Temp;Humidity;BMP_temperature;BMP_pressure;BME280_temperature;BME280_humidity;BME280_pressure;Samples;Min_cycle;Max_cycle;Signal;HPM_P1;HPM_P2
2023/11/05 00:01:39;;;;;;;0.75;0.30;;;;;;;11.60;53.94;93957.53;5026039;28;20029;-73
2023/11/05 00:04:04;;;;;;;0.50;0.22;;;;;;;11.59;53.81;93958.03;5025003;28;20040;-73
2023/11/05 00:06:34;;;;;;;1.58;0.30;;;;;;;11.54;53.81;93964.16;5026797;28;20036;-73
2023/11/05 00:08:59;;;;;;;0.80;0.30;;;;;;;11.61;53.96;93966.56;5023923;28;20025;-74
2023/11/05 00:11:25;;;;;;;1.20;0.47;;;;;;;11.56;54.32;93975.47;5041675;28;20029;-73
2023/11/05 00:13:50;;;;;;;1.13;0.60;;;;;;;11.62;55.15;93979.09;5025228;28;20029;-73
2023/11/05 00:16:15;;;;;;;2.83;0.82;;;;;;;11.59;56.05;93961.53;5040884;28;20033;-73
2023/11/05 00:18:41;;;;;;;1.48;0.90;;;;;;;11.59;56.36;93975.31;5025944;28;20133;-73
2023/11/05 00:21:07;;;;;;;2.67;1.00;;;;;;;11.53;56.87;93970.91;5023933;28;20018;-73
2023/11/05 00:23:32;;;;;;;1.83;0.70;;;;;;;11.51;56.90;93973.34;5041474;28;20117;-74
2023/11/05 00:25:58;;;;;;;1.70;0.85;;;;;;;11.49;57.09;93973.81;5039634;28;20033;-73
2023/11/05 00:28:23;;;;;;;3.70;0.98;;;;;;;11.41;57.17;93962.38;5026450;28;20412;-73
2023/11/05 00:30:48;;;;;;;1.83;0.55;;;;;;;11.32;57.47;93958.91;5039868;28;20032;-73
2023/11/05 00:33:14;;;;;;;1.35;0.60;;;;;;;11.29;57.85;93963.34;5026159;28;20423;-73
2023/11/05 00:35:39;;;;;;;6.82;0.80;;;;;;;11.28;57.52;93955.56;5040620;28;20071;-74
2023/11/05 00:38:05;;;;;;;2.50;0.47;;;;;;;10.99;57.81;93951.38;5025951;28;20079;-73
2023/11/05 00:40:30;;;;;;;2.38;0.90;;;;;;;11.00;57.91;93960.38;5026128;28;20237;-74
2023/11/05 00:42:56;;;;;;;2.88;0.60;;;;;;;10.98;57.97;93966.34;5023274;28;20163;-73
2023/11/05 00:45:22;;;;;;;0.82;0.35;;;;;;;10.96;58.12;93955.06;5041413;28;20021;-73
2023/11/05 00:47:47;;;;;;;1.35;0.40;;;;;;;10.97;58.07;93959.34;5040026;28;20033;-73
2023/11/05 00:50:13;;;;;;;0.85;0.50;;;;;;;10.86;58.37;93948.81;5026094;28;20404;-72
2023/11/05 00:52:38;;;;;;;1.27;0.45;;;;;;;10.78;58.50;93947.63;5023385;28;20034;-73
2023/11/05 00:55:04;;;;;;;2.30;0.50;;;;;;;10.73;58.52;93942.75;5025563;28;20021;-73
2023/11/05 00:57:32;;;;;;;1.52;0.55;;;;;;;10.80;58.24;93939.69;5026077;28;20025;-73
2023/11/05 00:59:58;;;;;;;1.80;0.40;;;;;;;10.72;58.43;93943.94;5024688;28;20091;-74
2023/11/05 01:02:23;;;;;;;0.70;0.30;;;;;;;10.69;58.67;93942.16;5026247;28;20495;-74
2023/11/05 01:04:49;;;;;;;1.15;0.50;;;;;;;10.71;58.73;93942.44;5023997;28;20557;-74
2023/11/05 01:07:14;;;;;;;0.75;0.52;;;;;;;10.75;58.58;93948.53;5026355;28;20014;-74
2023/11/05 01:09:39;;;;;;;2.00;0.68;;;;;;;10.80;58.52;93944.41;5024637;28;20075;-74
2023/11/05 01:12:05;;;;;;;4.10;0.73;;;;;;;10.84;58.46;93945.78;5040842;28;20025;-74
2023/11/05 01:14:30;;;;;;;0.70;0.40;;;;;;;10.75;58.58;93926.53;5044121;28;20026;-74
2023/11/05 01:16:56;;;;;;;3.10;0.50;;;;;;;10.71;58.77;93936.19;5043802;28;20398;-74
2023/11/05 01:19:21;;;;;;;2.00;0.90;;;;;;;10.73;59.00;93942.00;5029292;28;20033;-74
2023/11/05 01:21:46;;;;;;;2.50;0.70;;;;;;;10.72;58.82;93934.94;5033379;28;20483;-74
2023/11/05 01:24:12;;;;;;;2.55;0.52;;;;;;;10.72;58.72;93957.69;5049463;28;20048;-74
2023/11/05 01:26:38;;;;;;;3.78;0.60;;;;;;;10.71;58.86;93958.16;5047997;28;20021;-74
2023/11/05 01:29:03;;;;;;;1.58;0.80;;;;;;;10.63;59.09;93954.97;5049180;28;20032;-74
2023/11/05 01:31:28;;;;;;;1.40;0.82;;;;;;;10.44;59.62;93939.75;5046519;28;20112;-74
2023/11/05 01:33:54;;;;;;;1.80;1.00;;;;;;;10.45;60.35;93949.50;5048615;28;20028;-74
2023/11/05 01:36:19;;;;;;;4.88;1.25;;;;;;;10.46;60.48;93953.78;5048606;28;20111;-74
2023/11/05 01:38:45;;;;;;;3.20;1.25;;;;;;;10.47;61.02;93949.81;5048193;28;20021;-74
2023/11/05 01:41:10;;;;;;;2.22;1.27;;;;;;;10.42;61.13;93942.94;5048937;28;20380;-74
2023/11/05 01:43:36;;;;;;;2.47;1.20;;;;;;;10.44;61.26;93935.03;5047442;28;20079;-74
2023/11/05 01:46:02;;;;;;;4.90;1.50;;;;;;;10.35;61.73;93944.03;5049015;28;20036;-74
2023/11/05 01:48:28;;;;;;;2.35;1.85;;;;;;;10.27;61.96;93929.09;5062953;28;20033;-74
2023/11/05 01:50:54;;;;;;;5.50;1.48;;;;;;;10.26;62.08;93930.28;5063938;28;20181;-73
2023/11/05 01:53:19;;;;;;;4.35;1.35;;;;;;;10.24;62.17;93951.97;5063306;28;20604;-74
2023/11/05 01:55:45;;;;;;;3.17;1.52;;;;;;;10.21;62.32;93941.13;5046901;28;20025;-74
2023/11/05 01:58:11;;;;;;;2.78;1.60;;;;;;;10.19;62.50;93966.28;5063719;28;20029;-73
2023/11/05 02:00:37;;;;;;;2.28;1.40;;;;;;;10.19;62.42;93973.75;5062822;28;20025;-73
2023/11/05 02:03:03;;;;;;;3.60;1.63;;;;;;;10.18;62.47;93983.22;5063972;28;20107;-73
2023/11/05 02:05:28;;;;;;;5.68;2.25;;;;;;;10.02;62.89;93968.53;5045799;28;20040;-73
2023/11/05 02:07:54;;;;;;;3.10;1.77;;;;;;;9.85;63.56;93976.31;5064385;28;20120;-74
2023/11/05 02:10:19;;;;;;;3.40;1.80;;;;;;;9.60;64.57;93978.56;5047045;28;20392;-74
2023/11/05 02:13:07;;;;;;;4.13;1.70;;;;;;;9.48;64.95;93966.47;5048402;28;20043;-73
2023/11/05 02:15:32;;;;;;;3.10;1.30;;;;;;;9.34;65.40;93958.78;5046951;28;20423;-73
2023/11/05 02:17:58;;;;;;;2.47;1.35;;;;;;;9.38;65.26;93973.16;5047132;28;20370;-74
2023/11/05 02:20:24;;;;;;;3.40;1.52;;;;;;;9.46;64.93;93968.91;5048034;28;20507;-74
2023/11/05 02:22:52;;;;;;;2.28;1.10;;;;;;;9.44;64.94;93965.84;5031572;28;20026;-73
2023/11/05 02:25:20;;;;;;;2.90;1.10;;;;;;;9.45;65.06;93965.38;5043037;28;20066;-72
2023/11/05 02:27:50;;;;;;;2.55;1.30;;;;;;;9.44;65.12;93969.34;5042023;28;20021;-73
2023/11/05 02:30:19;;;;;;;3.97;1.65;;;;;;;9.45;65.23;93959.13;5026373;28;20056;-72
2023/11/05 02:32:46;;;;;;;4.20;1.73;;;;;;;9.45;65.18;93961.88;5028044;28;20052;-74
2023/11/05 02:35:12;;;;;;;2.20;1.13;;;;;;;9.47;65.29;93954.75;5026770;28;20052;-74
2023/11/05 02:37:38;;;;;;;5.40;1.55;;;;;;;9.48;65.29;93966.47;5028225;28;20077;-74
2023/11/05 02:40:06;;;;;;;3.47;1.20;;;;;;;9.49;65.11;93957.78;5024910;28;20033;-74
2023/11/05 02:42:32;;;;;;;3.97;1.30;;;;;;;9.50;65.27;93948.34;5028116;28;20072;-74
2023/11/05 02:44:57;;;;;;;3.70;1.27;;;;;;;9.54;65.25;93946.22;5026710;28;20068;-74
2023/11/05 02:47:23;;;;;;;3.08;1.40;;;;;;;9.53;65.11;93954.91;5042808;28;20088;-74
2023/11/05 02:49:48;;;;;;;2.33;1.20;;;;;;;9.51;65.19;93943.59;5027455;28;20025;-74
2023/11/05 02:52:14;;;;;;;2.38;1.48;;;;;;;9.45;65.21;93946.19;5025315;28;20044;-74
2023/11/05 02:54:39;;;;;;;1.85;1.42;;;;;;;9.45;65.44;93961.88;5027855;28;20053;-73
2023/11/05 02:57:05;;;;;;;2.80;1.60;;;;;;;9.43;65.37;93934.16;5026287;28;20411;-74
2023/11/05 02:59:30;;;;;;;4.20;1.38;;;;;;;9.47;65.45;93948.50;5026214;28;20120;-74
2023/11/05 03:01:56;;;;;;;7.15;1.35;;;;;;;9.52;65.24;93939.66;5041437;28;20026;-74
2023/11/05 03:04:22;;;;;;;2.47;1.25;;;;;;;9.50;65.55;93948.34;5042603;28;20021;-74
2023/11/05 03:06:50;;;;;;;2.65;1.38;;;;;;;9.50;65.36;93953.06;5026626;28;20025;-74
2023/11/05 03:09:17;;;;;;;2.45;1.20;;;;;;;9.36;65.72;93957.16;5026951;28;20021;-74
2023/11/05 03:11:45;;;;;;;2.58;1.67;;;;;;;9.23;66.48;93940.81;5042402;28;20396;-74
2023/11/05 03:14:11;;;;;;;3.30;1.38;;;;;;;9.36;66.05;93981.84;5024709;28;20463;-74
2023/11/05 03:16:38;;;;;;;2.72;1.52;;;;;;;9.30;66.17;93945.25;5042726;28;20499;-74
2023/11/05 03:19:03;;;;;;;3.95;1.55;;;;;;;9.37;65.94;93961.41;5041012;28;20051;-74
2023/11/05 03:21:31;;;;;;;2.83;1.58;;;;;;;9.32;66.15;93962.75;5029882;28;20029;-74
2023/11/05 03:23:57;;;;;;;3.25;1.40;;;;;;;9.28;66.13;93970.34;5044525;28;20424;-74
2023/11/05 03:26:22;;;;;;;4.57;1.60;;;;;;;9.23;66.04;93956.47;5061989;28;20024;-74
2023/11/05 03:28:47;;;;;;;5.50;2.17;;;;;;;9.23;66.08;93972.94;5046708;28;20514;-74
2023/11/05 03:31:15;;;;;;;4.43;1.70;;;;;;;9.19;66.26;93964.84;5046034;28;20065;-74
2023/11/05 03:33:41;;;;;;;4.07;1.63;;;;;;;9.17;66.40;93952.78;5043861;28;20616;-74
2023/11/05 03:36:06;;;;;;;3.10;1.77;;;;;;;9.17;66.25;93950.06;5023843;28;20029;-74
2023/11/05 03:38:32;;;;;;;2.90;1.60;;;;;;;9.13;66.54;93968.66;5026992;28;20025;-74
2023/11/05 03:40:57;;;;;;;2.75;1.70;;;;;;;9.19;66.34;93961.34;5025747;28;20033;-74
2023/11/05 03:43:22;;;;;;;3.55;1.70;;;;;;;9.17;66.35;93958.28;5026706;28;20029;-74
2023/11/05 03:45:48;;;;;;;2.50;1.70;;;;;;;9.12;66.46;93969.84;5026087;28;20088;-74
2023/11/05 03:48:13;;;;;;;2.40;1.50;;;;;;;9.12;66.03;93948.69;5026316;28;20036;-74
2023/11/05 03:50:39;;;;;;;2.30;1.67;;;;;;;9.06;66.19;93958.72;5026646;28;20057;-74
2023/11/05 03:53:04;;;;;;;3.33;2.25;;;;;;;9.09;66.41;93970.75;5040820;28;20033;-74
2023/11/05 03:55:29;;;;;;;3.10;1.80;;;;;;;9.11;66.20;93946.38;5041792;28;20075;-75
2023/11/05 03:57:55;;;;;;;3.17;2.28;;;;;;;9.07;66.47;93957.50;5023817;28;20029;-74
2023/11/05 04:00:20;;;;;;;2.70;1.80;;;;;;;9.12;66.43;93951.44;5026584;28;20026;-74
2023/11/05 04:02:46;;;;;;;3.60;2.20;;;;;;;9.00;66.42;93955.81;5025577;28;20059;-74
2023/11/05 04:05:14;;;;;;;3.25;2.28;;;;;;;8.80;67.30;93969.09;5041414;28;20112;-74
2023/11/05 04:07:39;;;;;;;3.95;2.25;;;;;;;8.80;67.76;93971.06;5041057;28;20029;-74
2023/11/05 04:10:05;;;;;;;2.83;1.90;;;;;;;8.86;66.83;93974.75;5025774;28;20021;-74
2023/11/05 04:12:31;;;;;;;2.95;1.60;;;;;;;8.75;67.20;93981.38;5026534;28;20068;-74
2023/11/05 04:14:56;;;;;;;3.20;1.80;;;;;;;8.68;67.34;93987.13;5025002;28;20025;-74
2023/11/05 04:17:21;;;;;;;3.85;1.42;;;;;;;8.63;67.73;93995.16;5026463;28;20026;-74
2023/11/05 04:19:47;;;;;;;3.42;1.50;;;;;;;8.54;67.80;93997.81;5024782;28;20103;-74
2023/11/05 04:22:12;;;;;;;5.38;1.73;;;;;;;8.60;67.62;93988.63;5026285;28;20440;-73
2023/11/05 04:24:38;;;;;;;3.67;1.70;;;;;;;8.59;67.78;93975.34;5024735;28;20116;-74
2023/11/05 04:27:03;;;;;;;4.85;1.50;;;;;;;8.63;67.69;93995.94;5025994;28;20025;-74
2023/11/05 04:29:28;;;;;;;4.72;1.60;;;;;;;8.62;67.63;93991.66;5025844;28;20476;-74
2023/11/05 04:31:56;;;;;;;3.42;2.00;;;;;;;8.63;67.76;93982.22;5025222;28;20029;-74
2023/11/05 04:34:22;;;;;;;2.97;1.80;;;;;;;8.63;67.76;93986.94;5026811;28;20026;-75
2023/11/05 04:36:47;;;;;;;3.05;1.80;;;;;;;8.63;67.89;93995.16;5024495;28;20047;-74
2023/11/05 04:39:13;;;;;;;4.88;1.85;;;;;;;8.65;67.74;93985.28;5026285;28;20500;-74
2023/11/05 04:41:38;;;;;;;5.25;2.08;;;;;;;8.67;67.69;93984.84;5024633;28;20026;-74
2023/11/05 04:44:03;;;;;;;3.90;2.03;;;;;;;8.60;67.79;93990.56;5025817;28;20469;-74
2023/11/05 04:46:29;;;;;;;3.85;2.40;;;;;;;8.56;67.99;93993.44;5024979;28;20079;-74
2023/11/05 04:48:55;;;;;;;4.40;2.30;;;;;;;8.58;67.97;94009.44;5044311;28;20064;-74
2023/11/05 04:51:20;;;;;;;3.80;2.53;;;;;;;8.54;68.00;93993.13;5028620;28;20062;-74
2023/11/05 04:53:46;;;;;;;4.72;2.67;;;;;;;8.58;67.92;94001.22;5028456;28;20121;-74
2023/11/05 04:56:16;;;;;;;7.85;3.05;;;;;;;8.59;67.90;94008.97;5030467;28;20021;-74
2023/11/05 04:58:41;;;;;;;3.72;2.80;;;;;;;8.67;67.67;94023.97;5027013;28;20025;-74
2023/11/05 05:01:07;;;;;;;3.47;2.45;;;;;;;8.65;67.72;93990.00;5029833;28;20039;-74
2023/11/05 05:03:33;;;;;;;4.47;2.55;;;;;;;8.60;67.77;94007.78;5044032;28;20021;-74
2023/11/05 05:05:59;;;;;;;3.67;2.33;;;;;;;8.61;67.41;93997.59;5029539;28;20105;-74
2023/11/05 05:08:24;;;;;;;6.75;2.90;;;;;;;8.62;67.56;94010.06;5044947;28;20120;-74
2023/11/05 05:10:49;;;;;;;4.07;2.00;;;;;;;8.53;67.74;94010.75;5028362;28;20021;-74
2023/11/05 05:13:15;;;;;;;4.15;2.10;;;;;;;8.55;67.47;94008.38;5029881;28;20079;-73
2023/11/05 05:15:40;;;;;;;4.60;2.20;;;;;;;8.54;67.59;94019.75;5027671;28;20021;-75
2023/11/05 05:18:06;;;;;;;4.40;2.33;;;;;;;8.54;67.25;94004.06;5030015;28;20025;-74
2023/11/05 05:20:31;;;;;;;8.07;2.72;;;;;;;8.59;67.08;94022.69;5028199;28;20124;-74
2023/11/05 05:22:56;;;;;;;3.13;2.05;;;;;;;8.57;67.21;94005.94;5059299;28;20123;-74
2023/11/05 05:25:22;;;;;;;4.80;2.10;;;;;;;8.59;67.52;94019.19;5063788;28;20032;-74
2023/11/05 05:27:48;;;;;;;4.57;2.05;;;;;;;8.60;67.38;94018.75;5048436;28;20036;-74
2023/11/05 05:30:16;;;;;;;4.75;1.85;;;;;;;8.60;67.04;94021.50;5064452;28;20029;-74
2023/11/05 05:32:42;;;;;;;7.00;2.40;;;;;;;8.58;67.42;94021.16;5047729;28;20048;-74
2023/11/05 05:35:08;;;;;;;4.18;2.58;;;;;;;8.45;67.80;94014.97;5064743;28;20479;-74
2023/11/05 05:37:33;;;;;;;3.65;1.98;;;;;;;8.49;67.46;93999.19;5063063;28;20021;-74
2023/11/05 05:39:58;;;;;;;3.85;1.92;;;;;;;8.49;67.58;94019.13;5049245;28;20031;-74
2023/11/05 05:42:24;;;;;;;3.33;1.98;;;;;;;8.50;67.77;94011.66;5063203;28;20020;-75
2023/11/05 05:44:49;;;;;;;5.10;1.90;;;;;;;8.52;67.50;94014.72;5064058;28;20456;-74
2023/11/05 05:47:15;;;;;;;5.50;2.35;;;;;;;8.58;67.16;94018.41;5048731;28;20032;-74
2023/11/05 05:49:40;;;;;;;5.88;2.70;;;;;;;8.61;67.44;94022.25;5063288;28;20017;-73
2023/11/05 05:52:06;;;;;;;8.00;4.00;;;;;;;8.71;67.35;94019.09;5048950;28;20442;-74
2023/11/05 05:54:32;;;;;;;8.82;4.03;;;;;;;8.73;67.42;94033.16;5029395;28;20463;-74
2023/11/05 05:56:57;;;;;;;6.70;3.80;;;;;;;8.77;67.45;94028.31;5049044;28;20021;-74
2023/11/05 05:59:22;;;;;;;10.95;3.70;;;;;;;8.85;67.27;94009.63;5046962;28;20033;-74
2023/11/05 06:01:48;;;;;;;7.32;4.22;;;;;;;8.91;66.95;94005.09;5048393;28;20435;-74
2023/11/05 06:04:13;;;;;;;7.30;3.97;;;;;;;8.80;67.26;94014.91;5063123;28;20029;-74
2023/11/05 06:06:39;;;;;;;5.32;2.63;;;;;;;8.85;66.91;94012.34;5048190;28;20017;-73
2023/11/05 06:09:12;;;;;;;6.40;2.63;;;;;;;8.86;66.94;94005.66;5048153;28;20805;-74
2023/11/05 06:11:38;;;;;;;6.07;2.88;;;;;;;8.87;66.89;93988.00;5061698;28;20451;-74
2023/11/05 06:14:03;;;;;;;6.03;2.85;;;;;;;8.92;66.96;93997.63;5048513;28;20056;-74
2023/11/05 06:16:28;;;;;;;4.93;2.92;;;;;;;8.93;67.31;94005.38;5062008;28;20499;-75
2023/11/05 06:18:54;;;;;;;4.90;2.67;;;;;;;9.00;67.20;94012.56;5046651;28;20577;-74
2023/11/05 06:21:19;;;;;;;5.53;2.85;;;;;;;9.05;67.15;94014.75;5045596;28;20027;-74
2023/11/05 06:23:45;;;;;;;7.57;3.10;;;;;;;9.08;66.81;93997.41;5043261;28;20109;-74
2023/11/05 06:26:10;;;;;;;6.82;2.83;;;;;;;9.16;66.60;93993.16;5042956;28;20029;-74
2023/11/05 06:28:36;;;;;;;4.45;3.00;;;;;;;9.20;66.46;93993.81;5027291;28;20026;-74
2023/11/05 06:31:01;;;;;;;4.75;2.83;;;;;;;9.29;66.15;94015.03;5028030;28;20113;-74
2023/11/05 06:33:26;;;;;;;3.92;2.15;;;;;;;9.25;66.20;94022.63;5026682;28;20116;-74
2023/11/05 06:35:52;;;;;;;7.40;3.00;;;;;;;9.30;66.16;94020.06;5028188;28;20025;-74
2023/11/05 06:38:17;;;;;;;4.30;3.15;;;;;;;9.38;66.09;94017.03;5041832;28;20045;-74
2023/11/05 06:40:43;;;;;;;7.13;3.25;;;;;;;9.44;65.95;94024.22;5026456;28;20047;-73
2023/11/05 06:43:08;;;;;;;4.45;2.88;;;;;;;9.53;65.40;94029.75;5026972;28;20108;-73
2023/11/05 06:45:33;;;;;;;6.30;3.50;;;;;;;9.62;65.31;94036.47;5042125;28;20034;-74
2023/11/05 06:47:59;;;;;;;9.13;4.50;;;;;;;9.72;65.27;94030.56;5027286;28;20065;-74
2023/11/05 06:50:24;;;;;;;8.48;5.20;;;;;;;9.77;64.92;94029.22;5041826;28;20021;-74
2023/11/05 06:52:49;;;;;;;12.50;6.10;;;;;;;9.89;64.92;94033.81;5028325;28;20021;-74
2023/11/05 06:55:17;;;;;;;10.30;6.43;;;;;;;9.94;64.75;94024.97;5026008;28;20029;-73
2023/11/05 06:57:43;;;;;;;12.15;6.00;;;;;;;10.04;64.50;94001.81;5028258;28;20032;-73
2023/11/05 07:00:09;;;;;;;10.43;5.93;;;;;;;10.14;64.21;94016.31;5041431;28;20029;-73
2023/11/05 07:02:35;;;;;;;9.90;5.65;;;;;;;10.22;64.10;94012.06;5025894;28;20467;-74
2023/11/05 07:05:04;;;;;;;9.32;6.07;;;;;;;10.35;63.64;94009.94;5025286;28;20036;-74
2023/11/05 07:07:31;;;;;;;9.80;5.80;;;;;;;10.49;63.45;94002.31;5041411;28;20029;-75
2023/11/05 07:09:56;;;;;;;8.32;5.43;;;;;;;10.63;62.74;93993.47;5041768;28;20488;-74
2023/11/05 07:12:22;;;;;;;7.03;6.22;;;;;;;10.71;62.26;93975.41;5023994;28;20046;-73
2023/11/05 07:14:47;;;;;;;9.93;6.53;;;;;;;10.90;62.10;93996.16;5027883;28;20052;-73
2023/11/05 07:17:13;;;;;;;8.00;6.22;;;;;;;11.01;62.04;94000.41;5024379;28;20404;-73
2023/11/05 07:19:39;;;;;;;9.20;5.68;;;;;;;11.21;60.71;94011.66;5025457;28;20058;-74
2023/11/05 07:22:05;;;;;;;6.25;4.35;;;;;;;11.37;60.32;93994.81;5041219;28;20032;-74
2023/11/05 07:24:30;;;;;;;9.98;4.70;;;;;;;11.56;59.46;93972.72;5026641;28;20062;-74
2023/11/05 07:26:57;;;;;;;11.27;6.97;;;;;;;11.78;59.27;93983.47;5025409;28;20036;-74
2023/11/05 07:29:22;;;;;;;13.38;7.85;;;;;;;12.10;58.70;93976.38;5025628;28;20086;-74
2023/11/05 07:31:48;;;;;;;11.18;6.38;;;;;;;12.36;57.58;93971.91;5009409;28;20025;-74
2023/11/05 07:34:13;;;;;;;9.27;5.43;;;;;;;12.65;56.67;93968.44;5040296;28;20036;-74
2023/11/05 07:36:39;;;;;;;8.35;4.95;;;;;;;12.99;55.60;93944.22;5027080;28;20109;-74
2023/11/05 07:39:07;;;;;;;6.40;4.20;;;;;;;13.40;54.25;93952.66;5025990;28;20495;-74
2023/11/05 07:41:33;;;;;;;9.35;4.68;;;;;;;13.81;53.30;93959.03;5027212;28;20029;-74
2023/11/05 07:43:59;;;;;;;7.20;4.47;;;;;;;14.21;52.83;93952.78;5026546;28;20102;-74
2023/11/05 07:46:25;;;;;;;7.35;4.28;;;;;;;14.68;51.43;93956.38;5025452;28;20025;-73
2023/11/05 07:48:51;;;;;;;7.65;4.25;;;;;;;15.17;50.97;93968.41;5042176;28;20025;-74
2023/11/05 07:51:18;;;;;;;8.80;5.03;;;;;;;15.91;49.64;93959.41;5025078;28;20617;-74
2023/11/05 07:53:43;;;;;;;5.53;3.08;;;;;;;16.73;46.10;93976.91;5027010;28;20025;-72
2023/11/05 07:56:09;;;;;;;6.90;3.63;;;;;;;18.26;41.87;93975.69;5025444;28;20420;-73
2023/11/05 07:58:35;;;;;;;6.30;3.10;;;;;;;19.40;40.01;93963.50;5026745;28;20090;-72
2023/11/05 08:01:01;;;;;;;5.05;2.90;;;;;;;20.70;36.80;93950.56;5025794;28;20029;-71
2023/11/05 08:03:27;;;;;;;3.72;2.40;;;;;;;21.77;34.58;93963.78;5025967;28;20032;-72
2023/11/05 08:05:52;;;;;;;4.10;2.33;;;;;;;22.65;32.83;93965.53;5026302;28;20029;-72
2023/11/05 08:08:18;;;;;;;4.93;2.05;;;;;;;23.46;31.45;93941.66;5025125;28;20092;-72
2023/11/05 08:10:44;;;;;;;3.17;1.88;;;;;;;24.35;29.35;93907.78;5026882;28;20029;-74
2023/11/05 08:13:09;;;;;;;9.20;2.40;;;;;;;25.22;28.15;93923.94;5025088;28;20048;-73
2023/11/05 08:15:34;;;;;;;6.15;2.20;;;;;;;25.79;27.48;93920.13;5026057;28;20029;-74
2023/11/05 08:18:00;;;;;;;5.30;2.33;;;;;;;26.37;26.64;93919.16;5025273;28;20018;-74
2023/11/05 08:20:25;;;;;;;4.70;2.65;;;;;;;27.08;25.52;93907.91;5025954;28;20072;-73
2023/11/05 08:22:50;;;;;;;3.58;1.67;;;;;;;27.99;24.60;93891.75;5040021;28;20490;-73
2023/11/05 08:25:21;;;;;;;4.35;1.73;;;;;;;28.50;23.69;93888.28;5045453;28;20475;-74
2023/11/05 08:27:47;;;;;;;4.47;2.45;;;;;;;28.89;23.59;93894.25;5046129;28;20040;-74
2023/11/05 08:30:15;;;;;;;3.55;1.60;;;;;;;29.23;22.66;93876.50;5044823;28;20028;-73
2023/11/05 08:32:41;;;;;;;4.00;1.73;;;;;;;29.58;22.09;93882.06;5046044;28;20476;-73
2023/11/05 08:35:07;;;;;;;4.68;1.45;;;;;;;29.85;22.19;93876.38;5044880;28;20027;-74
2023/11/05 08:37:32;;;;;;;2.58;1.45;;;;;;;29.57;22.41;93883.41;5045954;28;20395;-72
2023/11/05 08:39:58;;;;;;;3.33;1.65;;;;;;;29.52;22.50;93884.41;5026682;28;20053;-73
2023/11/05 08:42:23;;;;;;;3.65;1.40;;;;;;;29.29;23.22;93887.56;5025393;28;20022;-72
2023/11/05 08:44:50;;;;;;;5.57;2.70;;;;;;;28.96;23.02;93884.97;5025850;28;20083;-73
2023/11/05 08:47:15;;;;;;;3.58;2.20;;;;;;;28.61;23.49;93869.31;5040100;28;20057;-74
2023/11/05 08:49:40;;;;;;;3.90;2.03;;;;;;;28.69;23.87;93876.41;5026145;28;20067;-73
2023/11/05 08:52:06;;;;;;;6.22;2.38;;;;;;;28.43;23.96;93885.53;5024866;28;20026;-74
2023/11/05 08:54:34;;;;;;;4.00;1.80;;;;;;;28.40;24.08;93876.13;5025953;28;20567;-73
2023/11/05 08:57:00;;;;;;;5.20;1.70;;;;;;;28.37;23.79;93868.06;5040076;28;20456;-74
2023/11/05 08:59:26;;;;;;;3.72;2.33;;;;;;;28.33;24.41;93874.16;5025662;28;20057;-72
2023/11/05 09:01:52;;;;;;;3.78;1.60;;;;;;;28.91;23.45;93857.66;5052041;28;20106;-73
2023/11/05 09:04:18;;;;;;;3.90;1.83;;;;;;;29.44;22.39;93841.31;5058897;28;20104;-73
2023/11/05 09:06:44;;;;;;;2.22;1.00;;;;;;;29.49;21.65;93837.47;5045415;28;20116;-73
2023/11/05 09:09:11;;;;;;;3.03;1.45;;;;;;;30.25;21.01;93827.75;5044622;28;20079;-74
2023/11/05 09:11:37;;;;;;;3.10;1.70;;;;;;;30.27;21.31;93824.31;5045657;28;20029;-73
2023/11/05 09:14:03;;;;;;;4.60;1.58;;;;;;;30.25;21.32;93824.91;5044431;28;20031;-72
2023/11/05 09:16:28;;;;;;;3.00;1.10;;;;;;;29.89;21.33;93823.63;5060700;28;20029;-73
2023/11/05 09:18:55;;;;;;;4.30;1.20;;;;;;;29.60;21.05;93828.47;5044617;28;20063;-73
2023/11/05 09:21:20;;;;;;;2.38;0.88;;;;;;;29.71;20.26;93799.59;5045207;28;20021;-73
2023/11/05 09:23:46;;;;;;;3.53;1.08;;;;;;;29.71;20.08;93801.66;5045117;28;20050;-74
2023/11/05 09:26:11;;;;;;;2.15;1.00;;;;;;;29.78;19.98;93804.38;5043146;28;20025;-76
2023/11/05 09:28:37;;;;;;;1.90;0.80;;;;;;;29.16;19.75;93775.50;5045645;28;20021;-73
2023/11/05 09:31:02;;;;;;;2.75;0.80;;;;;;;28.95;19.95;93773.13;5042299;28;20083;-73
2023/11/05 09:33:28;;;;;;;1.83;0.73;;;;;;;28.99;20.02;93803.84;5046455;28;20040;-73
2023/11/05 09:35:54;;;;;;;2.03;0.50;;;;;;;29.14;19.04;93788.75;5047810;28;20059;-73
2023/11/05 09:38:19;;;;;;;1.67;0.63;;;;;;;28.96;19.34;93776.72;5064563;28;20067;-74
2023/11/05 09:40:46;;;;;;;0.95;0.47;;;;;;;28.68;18.96;93781.59;5063803;28;20024;-74
2023/11/05 09:43:11;;;;;;;1.92;0.60;;;;;;;28.34;20.94;93776.00;5063706;28;20025;-76
2023/11/05 09:45:37;;;;;;;3.13;0.68;;;;;;;27.45;22.33;93727.69;5048610;28;20028;-76
2023/11/05 09:48:07;;;;;;;2.50;0.50;;;;;;;26.96;20.99;93785.56;5058682;28;20052;-76
2023/11/05 09:50:38;;;;;;;1.90;0.63;;;;;;;26.57;21.81;93804.75;5046883;28;20111;-77
2023/11/05 09:53:10;;;;;;;1.58;0.75;;;;;;;27.33;21.06;93746.41;5026374;28;20033;-78
2023/11/05 09:55:36;;;;;;;2.85;1.00;;;;;;;27.82;20.34;93739.25;5028625;28;20095;-78
2023/11/05 09:58:02;;;;;;;1.42;0.55;;;;;;;27.64;19.68;93750.47;5043421;28;20550;-78
2023/11/05 10:00:30;;;;;;;1.38;0.68;;;;;;;26.90;20.61;93726.59;5043554;28;20022;-77
2023/11/05 10:03:00;;;;;;;1.58;0.63;;;;;;;26.84;21.15;93719.66;5027326;28;20704;-76
2023/11/05 10:05:39;;;;;;;2.72;0.70;;;;;;;27.02;20.79;93729.69;5027331;28;20259;-77
2023/11/05 10:08:08;;;;;;;1.88;0.40;;;;;;;25.75;22.04;93742.44;5044329;28;20455;-77
2023/11/05 10:10:35;;;;;;;2.50;0.60;;;;;;;25.20;22.84;93706.47;5027487;28;20108;-77
2023/11/05 10:13:01;;;;;;;1.83;0.60;;;;;;;24.95;23.25;93697.84;5010220;28;20034;-76
2023/11/05 10:15:26;;;;;;;1.80;0.70;;;;;;;25.11;22.86;93688.84;5026492;28;20357;-75
2023/11/05 10:17:53;;;;;;;1.85;0.57;;;;;;;24.74;23.60;93706.44;5026310;28;20044;-75
2023/11/05 10:20:20;;;;;;;1.17;0.40;;;;;;;24.47;24.34;93698.31;5028252;28;20075;-76
2023/11/05 10:22:47;;;;;;;1.20;0.50;;;;;;;23.98;24.76;93690.09;5025545;28;20028;-77
2023/11/05 10:25:23;;;;;;;1.10;0.57;;;;;;;24.05;25.08;93686.56;5028354;28;20519;-79
2023/11/05 10:27:50;;;;;;;2.42;0.55;;;;;;;24.01;24.84;93678.50;5025502;28;20022;-77
2023/11/05 10:30:18;;;;;;;2.67;0.60;;;;;;;23.93;25.17;93666.50;5043440;28;20037;-77
2023/11/05 10:32:45;;;;;;;2.83;1.30;;;;;;;24.34;25.64;93664.75;5042713;28;20113;-78
2023/11/05 10:35:11;;;;;;;2.85;1.13;;;;;;;24.70;26.01;93687.13;5042847;28;20021;-76
2023/11/05 10:37:37;;;;;;;2.13;0.98;;;;;;;24.88;26.10;93705.69;5043379;28;20029;-77
2023/11/05 10:40:05;;;;;;;7.22;2.53;;;;;;;24.89;26.95;93710.00;5025085;28;20596;-76
2023/11/05 10:42:32;;;;;;;5.15;2.20;;;;;;;24.85;27.19;93701.19;5042929;28;20369;-76
2023/11/05 10:45:00;;;;;;;2.10;1.30;;;;;;;24.94;27.16;93713.94;5024662;28;20038;-76
2023/11/05 10:47:25;;;;;;;3.50;1.45;;;;;;;25.10;26.63;93681.72;5027798;28;20038;-75
2023/11/05 10:49:57;;;;;;;4.32;1.70;;;;;;;25.06;26.43;93674.97;5041875;28;20029;-75
2023/11/05 10:52:25;;;;;;;4.32;1.15;;;;;;;25.12;24.32;93662.25;5027510;28;20092;-77
2023/11/05 10:55:06;;;;;;;3.95;1.10;;;;;;;25.06;24.01;93661.69;5042664;28;20540;-75
2023/11/05 10:57:46;;;;;;;3.35;1.85;;;;;;;25.46;23.73;93647.00;5026681;28;20460;-75
2023/11/05 11:00:19;;;;;;;4.45;1.67;;;;;;;26.52;21.97;93622.53;5027537;28;20456;-77
2023/11/05 11:02:45;;;;;;;2.78;1.40;;;;;;;27.04;21.48;93621.97;5026584;28;20105;-77
2023/11/05 11:05:13;;;;;;;1.27;0.57;;;;;;;28.16;20.04;93629.06;5026994;28;20500;-76
2023/11/05 11:07:42;;;;;;;0.85;0.30;;;;;;;27.17;20.67;93690.09;5026116;28;20353;-76
2023/11/05 11:10:11;;;;;;;1.98;0.90;;;;;;;26.65;21.75;93644.81;5026458;28;20049;-76
2023/11/05 11:12:38;;;;;;;1.83;1.10;;;;;;;27.06;21.90;93653.13;5026521;28;20047;-76
2023/11/05 11:15:07;;;;;;;1.75;0.80;;;;;;;25.83;22.38;93641.84;5025918;28;20025;-78
2023/11/05 11:17:39;;;;;;;2.20;0.80;;;;;;;26.37;22.02;93657.16;5027539;28;20703;-77
2023/11/05 11:20:09;;;;;;;1.05;0.90;;;;;;;25.93;22.08;93643.50;5026108;28;20053;-77
2023/11/05 11:22:42;;;;;;;1.25;0.60;;;;;;;27.22;20.68;93658.09;5042561;28;20105;-77
2023/11/05 11:25:08;;;;;;;4.10;2.00;;;;;;;26.55;22.02;93646.75;5026725;28;20403;-77
2023/11/05 11:27:40;;;;;;;2.22;0.57;;;;;;;25.63;22.57;93643.56;5041068;28;20295;-77
2023/11/05 11:30:11;;;;;;;2.78;0.73;;;;;;;24.88;23.39;93657.16;5027037;28;20045;-77
2023/11/05 11:32:37;;;;;;;15.35;9.35;;;;;;;24.14;24.53;93660.00;5025933;28;20033;-77